Time;durP1;ratioP1;P1;durP2;ratioP2;P2;SDS_P1;SDS_P2;PMS_P1;PMS_P2;Temp;Humidity;BMP_temperature;BMP_pressure;BME280_temperature;BME280_humidity;BME280_pressure;Samples;Min_cycle;Max_cycle;Signal;HPM_P1;HPM_P2
2023/05/19 00:01:06;;;;;;;;;17.33;15.00;;;;;12.79;61.89;102334.38;5036796;27;46620;-67
2023/05/19 00:03:39;;;;;;;;;15.00;14.67;;;;;12.75;62.12;102323.81;5036698;28;45186;-67
2023/05/19 00:06:07;;;;;;;;;19.00;15.00;;;;;12.78;62.04;102332.63;5037060;27;45444;-67
2023/05/19 00:08:33;;;;;;;;;18.00;16.00;;;;;12.67;61.99;102319.47;5036859;28;45545;-67
2023/05/19 00:10:59;;;;;;;;;17.33;14.00;;;;;12.73;62.22;102330.91;5036887;28;45458;-67
2023/05/19 00:13:26;;;;;;;;;19.00;17.33;;;;;12.70;62.40;102321.22;5036724;28;45562;-67
2023/05/19 00:15:52;;;;;;;;;23.00;19.00;;;;;12.63;62.10;102311.56;5036801;28;45426;-67
2023/05/19 00:18:19;;;;;;;;;24.67;18.33;;;;;12.72;62.25;102322.06;5036919;28;45555;-67
2023/05/19 00:20:44;;;;;;;;;17.33;14.33;;;;;12.74;62.27;102325.59;5036635;27;46276;-67
2023/05/19 00:23:10;;;;;;;;;18.33;16.67;;;;;12.65;62.50;102309.78;5036809;28;45383;-68
2023/05/19 00:25:35;;;;;;;;;19.67;17.67;;;;;12.74;62.49;102325.59;5035772;28;45908;-68
2023/05/19 00:28:01;;;;;;;;;16.33;15.00;;;;;12.61;62.49;102310.72;5036380;28;45248;-68
2023/05/19 00:30:28;;;;;;;;;17.67;15.33;;;;;12.66;62.95;102320.38;5036579;27;45507;-67
2023/05/19 00:32:54;;;;;;;;;17.67;15.67;;;;;12.63;63.12;102311.56;5036418;27;45479;-68
2023/05/19 00:35:20;;;;;;;;;22.33;18.00;;;;;12.69;63.02;102316.81;5036700;27;45435;-67
2023/05/19 00:37:46;;;;;;;;;21.00;18.67;;;;;12.56;62.84;102294.88;5036683;28;45358;-67
2023/05/19 00:40:11;;;;;;;;;15.67;14.33;;;;;12.40;62.89;102269.44;5036264;28;47225;-67
2023/05/19 00:42:37;;;;;;;;;20.67;17.67;;;;;12.56;63.55;102299.28;5036293;28;45388;-67
2023/05/19 00:45:03;;;;;;;;;18.33;17.67;;;;;12.52;63.61;102296.66;5036243;28;45323;-67
2023/05/19 00:47:29;;;;;;;;;23.67;17.67;;;;;12.58;63.51;102308.09;5036491;28;45426;-68
2023/05/19 00:49:54;;;;;;;;;19.00;17.67;;;;;12.44;63.54;102287.91;5036187;28;46356;-67
2023/05/19 00:52:19;;;;;;;;;21.33;16.67;;;;;12.47;64.02;102293.16;5036477;28;45378;-67
2023/05/19 00:54:45;;;;;;;;;21.67;16.33;;;;;12.51;63.74;102301.97;5036311;28;45234;-67
2023/05/19 00:57:12;;;;;;;;;17.33;17.33;;;;;12.47;64.08;102287.88;5036529;28;45490;-67
2023/05/19 00:59:38;;;;;;;;;18.33;15.00;;;;;12.45;63.95;102291.44;5036401;28;45335;-67
2023/05/19 01:02:03;;;;;;;;;19.00;16.33;;;;;12.46;64.32;102294.06;5035393;28;45277;-67
2023/05/19 01:04:33;;;;;;;;;20.33;15.67;;;;;12.40;64.51;102282.66;5036043;28;45321;-68
2023/05/19 01:06:59;;;;;;;;;21.33;18.67;;;;;12.36;64.14;102287.09;5036044;27;45338;-67
2023/05/19 01:09:25;;;;;;;;;26.00;19.00;;;;;12.33;64.62;102284.47;5036003;27;46577;-67
2023/05/19 01:11:50;;;;;;;;;21.33;17.00;;;;;12.30;64.58;102277.41;5018323;27;45204;-67
2023/05/19 01:14:16;;;;;;;;;49.33;40.33;;;;;12.17;65.09;102255.47;5036076;27;45359;-67
2023/05/19 01:17:08;;;;;;;;;23.67;19.33;;;;;12.28;64.60;102283.59;5035329;28;45518;-67
2023/05/19 01:19:56;;;;;;;;;19.33;19.33;;;;;12.28;64.22;102286.22;4954647;28;46601;-67
2023/05/19 01:22:35;;;;;;;;;16.33;13.00;;;;;12.27;64.58;102280.09;4954908;28;45345;-67
2023/05/19 01:25:18;;;;;;;;;18.67;16.33;;;;;11.96;64.40;102234.47;4954899;28;45524;-67
2023/05/19 01:28:22;;;;;;;;;18.67;16.33;;;;;12.24;64.61;102272.16;4954979;28;45444;-67
2023/05/19 01:30:54;;;;;;;;;17.33;12.33;;;;;12.24;64.68;102271.28;4996475;28;46356;-67
2023/05/19 01:33:22;;;;;;;;;23.00;19.33;;;;;12.18;64.54;102253.69;4996903;28;45517;-67
2023/05/19 01:35:49;;;;;;;;;19.00;17.67;;;;;12.20;64.67;102265.16;4997038;28;45404;-67
2023/05/19 01:38:17;;;;;;;;;17.00;10.67;;;;;12.22;65.24;102276.56;4997111;28;45295;-67
2023/05/19 01:40:43;;;;;;;;;25.67;20.33;;;;;12.23;64.90;102274.81;4996763;28;46373;-67
2023/05/19 01:43:11;;;;;;;;;18.33;15.67;;;;;12.26;64.73;102274.81;4996814;28;45491;-68
2023/05/19 01:45:38;;;;;;;;;24.00;17.00;;;;;12.21;65.04;102272.16;4996870;28;45471;-68
2023/05/19 01:48:05;;;;;;;;;19.67;15.00;;;;;12.22;64.94;102268.66;4996766;28;45635;-68
2023/05/19 01:50:31;;;;;;;;;23.00;18.00;;;;;12.16;64.68;102251.06;4996581;28;46209;-68
2023/05/19 01:52:57;;;;;;;;;20.33;19.00;;;;;12.24;64.70;102258.06;4996982;28;45460;-67
2023/05/19 01:55:23;;;;;;;;;23.00;20.00;;;;;12.27;64.56;102266.88;4994673;28;45378;-68
2023/05/19 01:57:57;;;;;;;;;23.33;17.67;;;;;12.25;64.71;102267.75;4974528;28;45369;-68
2023/05/19 02:00:35;;;;;;;;;21.33;20.33;;;;;12.24;64.91;102272.16;4974129;28;46604;-68
2023/05/19 02:03:06;;;;;;;;;19.33;15.33;;;;;12.25;64.85;102267.75;4973668;28;45403;-68
2023/05/19 02:05:51;;;;;;;;;22.33;18.33;;;;;12.00;64.86;102233.56;4974065;28;45392;-68
2023/05/19 02:08:50;;;;;;;;;19.67;18.00;;;;;12.20;64.45;102267.78;5032071;28;45390;-68
2023/05/19 02:11:38;;;;;;;;;19.00;16.33;;;;;11.97;64.77;102230.94;5035251;28;46197;-68
2023/05/19 02:14:13;;;;;;;;;21.00;16.67;;;;;12.19;65.02;102268.66;5035113;28;45584;-68
2023/05/19 02:16:44;;;;;;;;;21.00;17.00;;;;;12.15;65.36;102267.78;5034649;27;45672;-68
2023/05/19 02:19:21;;;;;;;;;22.00;16.67;;;;;12.13;64.99;102263.44;5035352;28;45279;-68
2023/05/19 02:21:46;;;;;;;;;27.33;20.67;;;;;12.06;65.70;102257.28;5035124;28;47052;-68
2023/05/19 02:24:11;;;;;;;;;26.00;21.67;;;;;12.06;66.05;102265.22;5035013;27;45332;-68
2023/05/19 02:26:37;;;;;;;;;31.00;24.00;;;;;12.01;65.95;102254.66;5035370;28;45329;-68
2023/05/19 02:29:02;;;;;;;;;23.33;20.00;;;;;11.81;66.13;102228.31;5035450;28;45588;-68
2023/05/19 02:31:27;;;;;;;;;26.00;22.33;;;;;11.81;66.25;102235.38;5035013;28;46096;-68
2023/05/19 02:33:52;;;;;;;;;20.00;18.33;;;;;11.79;66.49;102226.56;5034979;28;45466;-68
2023/05/19 02:36:18;;;;;;;;;24.33;16.67;;;;;11.94;66.39;102247.66;5035306;27;45231;-68
2023/05/19 02:38:43;;;;;;;;;23.00;19.00;;;;;11.93;66.59;102255.56;5035774;27;45198;-68
2023/05/19 02:41:08;;;;;;;;;28.33;22.67;;;;;11.86;67.11;102252.06;5034775;28;45454;-68
2023/05/19 02:43:34;;;;;;;;;25.67;21.00;;;;;11.85;67.03;102251.19;5034896;28;45421;-68
2023/05/19 02:45:59;;;;;;;;;27.33;25.33;;;;;11.89;67.44;102262.59;5035031;28;45349;-67
2023/05/19 02:48:25;;;;;;;;;24.67;21.33;;;;;11.87;67.29;102255.59;5034938;27;45479;-68
2023/05/19 02:50:50;;;;;;;;;28.33;21.00;;;;;11.83;67.17;102255.56;5035122;27;45559;-68
2023/05/19 02:53:15;;;;;;;;;26.00;22.00;;;;;11.79;67.45;102238.03;5016971;27;45407;-68
2023/05/19 02:55:41;;;;;;;;;33.67;22.00;;;;;11.78;67.70;102240.66;5034956;27;45302;-68
2023/05/19 02:58:06;;;;;;;;;23.67;22.67;;;;;11.78;67.64;102238.91;5035339;27;45494;-68
2023/05/19 03:00:31;;;;;;;;;25.33;21.33;;;;;11.80;67.76;102242.41;5034712;28;46402;-68
2023/05/19 03:03:01;;;;;;;;;23.00;21.67;;;;;11.70;67.98;102231.88;5016882;28;45351;-68
2023/05/19 03:05:26;;;;;;;;;26.00;22.67;;;;;11.68;67.95;102229.25;5034771;28;45276;-68
2023/05/19 03:07:52;;;;;;;;;25.00;22.33;;;;;11.69;67.74;102238.94;5034972;28;45504;-68
2023/05/19 03:10:17;;;;;;;;;25.00;19.50;;;;;11.68;68.25;102235.41;5034815;28;46140;-68
2023/05/19 03:12:43;;;;;;;;;33.67;25.67;;;;;11.70;68.33;102239.81;5034648;28;45256;-68
2023/05/19 03:15:09;;;;;;;;;26.67;21.33;;;;;11.68;67.92;102245.97;5034798;27;45281;-68
2023/05/19 03:17:35;;;;;;;;;24.00;22.33;;;;;11.64;68.28;102238.94;5034741;27;45531;-68
2023/05/19 03:20:00;;;;;;;;;27.00;22.67;;;;;11.64;68.11;102236.28;5034237;28;47521;-68
2023/05/19 03:22:25;;;;;;;;;25.00;22.00;;;;;11.64;67.86;102232.78;5034331;28;45433;-68
2023/05/19 03:24:53;;;;;;;;;27.33;22.33;;;;;11.59;68.36;102232.81;5034465;28;45469;-68
2023/05/19 03:27:18;;;;;;;;;24.67;22.67;;;;;11.30;68.49;102188.91;5034764;28;45186;-69
2023/05/19 03:29:43;;;;;;;;;23.67;18.67;;;;;11.38;68.51;102207.34;5034044;28;45269;-69
2023/05/19 03:32:09;;;;;;;;;28.67;21.67;;;;;11.57;68.63;102237.19;5034266;28;45289;-69
2023/05/19 03:34:34;;;;;;;;;26.33;23.00;;;;;11.52;68.58;102228.44;5034469;28;45474;-69
2023/05/19 03:36:59;;;;;;;;;28.33;24.33;;;;;11.49;68.54;102223.16;5034461;28;45235;-69
2023/05/19 03:39:25;;;;;;;;;21.00;21.00;;;;;11.55;68.39;102228.41;5034253;28;46294;-69
2023/05/19 03:41:50;;;;;;;;;36.33;24.67;;;;;11.56;68.63;102238.09;5034068;28;45369;-69
2023/05/19 03:44:15;;;;;;;;;26.67;23.33;;;;;11.56;68.62;102234.56;5034318;28;45341;-69
2023/05/19 03:46:41;;;;;;;;;25.00;24.00;;;;;11.37;68.59;102210.00;5034289;27;45317;-69
2023/05/19 03:49:06;;;;;;;;;28.00;23.33;;;;;11.47;68.97;102239.00;5033728;27;46883;-69
2023/05/19 03:51:33;;;;;;;;;27.00;23.67;;;;;11.07;68.95;102165.25;5033872;28;45224;-69
2023/05/19 03:53:59;;;;;;;;;29.00;28.00;;;;;11.44;69.09;102236.38;5034191;28;45295;-69
2023/05/19 03:56:26;;;;;;;;;24.33;22.67;;;;;11.47;69.18;102244.28;5034254;27;45407;-69
2023/05/19 03:58:53;;;;;;;;;27.33;24.00;;;;;11.45;68.95;102237.25;5033926;28;45476;-69
2023/05/19 04:01:19;;;;;;;;;24.33;23.67;;;;;11.50;68.95;102241.63;5033809;27;45327;-69
2023/05/19 04:03:44;;;;;;;;;26.00;23.33;;;;;11.44;68.65;102233.72;5033988;27;45263;-69
2023/05/19 04:06:10;;;;;;;;;26.67;20.67;;;;;11.43;68.38;102229.34;5034270;27;45161;-69
2023/05/19 04:08:35;;;;;;;;;24.67;24.00;;;;;11.53;68.63;102253.94;5033646;28;46440;-69
2023/05/19 04:11:00;;;;;;;;;34.33;30.00;;;;;11.49;68.54;102253.03;5033523;28;45341;-69
2023/05/19 04:13:26;;;;;;;;;27.67;20.67;;;;;11.54;68.71;102265.34;5033677;28;45489;-69
2023/05/19 04:15:51;;;;;;;;;26.67;23.00;;;;;11.50;68.59;102257.44;5033971;28;45229;-69
2023/05/19 04:18:17;;;;;;;;;37.67;31.00;;;;;11.30;68.39;102222.34;5033493;28;45394;-69
2023/05/19 04:20:42;;;;;;;;;28.00;28.00;;;;;11.56;68.61;102264.47;5033584;28;45211;-69
2023/05/19 04:23:07;;;;;;;;;24.67;17.33;;;;;11.56;68.54;102267.13;5033444;28;45306;-69
2023/05/19 04:25:35;;;;;;;;;26.00;20.33;;;;;11.58;68.37;102267.09;5033731;28;45382;-68
2023/05/19 04:28:01;;;;;;;;;31.00;22.67;;;;;11.63;68.44;102275.88;5033501;27;47090;-69
2023/05/19 04:30:28;;;;;;;;;25.67;22.00;;;;;11.65;68.76;102277.63;5034286;27;45466;-69
2023/05/19 04:32:53;;;;;;;;;46.67;37.00;;;;;11.63;68.44;102273.22;5033098;28;45470;-69
2023/05/19 04:35:19;;;;;;;;;26.00;23.00;;;;;11.61;68.35;102267.97;5033745;28;45433;-69
2023/05/19 04:37:45;;;;;;;;;30.00;25.33;;;;;11.65;68.73;102264.44;5033111;28;45425;-69
2023/05/19 04:40:14;;;;;;;;;26.67;23.33;;;;;11.64;68.35;102264.44;5033808;28;45504;-69
2023/05/19 04:42:41;;;;;;;;;25.33;23.00;;;;;11.71;68.32;102266.19;5036565;28;45364;-69
2023/05/19 04:45:08;;;;;;;;;36.33;31.00;;;;;11.71;68.72;102268.81;5036631;28;45505;-69
2023/05/19 04:47:37;;;;;;;;;31.00;27.33;;;;;11.52;68.33;102227.53;5036034;28;46428;-69
2023/05/19 04:50:03;;;;;;;;;29.67;24.67;;;;;11.42;68.68;102211.75;5036111;27;45320;-69
2023/05/19 04:52:28;;;;;;;;;33.67;24.67;;;;;11.74;68.58;102260.91;5035953;28;45434;-69
2023/05/19 04:54:53;;;;;;;;;30.00;26.00;;;;;11.78;68.46;102269.69;5036914;27;45274;-68
2023/05/19 04:57:19;;;;;;;;;26.67;23.67;;;;;11.80;68.19;102266.16;5036070;27;45427;-69
2023/05/19 04:59:45;;;;;;;;;25.00;22.00;;;;;11.86;68.30;102262.59;5018686;27;45427;-69
2023/05/19 05:02:10;;;;;;;;;29.33;24.33;;;;;11.96;68.05;102261.72;5036109;27;45469;-69
2023/05/19 05:04:36;;;;;;;;;30.33;23.67;;;;;12.30;67.25;102251.00;5035676;27;45433;-69
2023/05/19 05:07:01;;;;;;;;;32.00;25.67;;;;;12.96;65.14;102275.22;5035451;28;46428;-68
2023/05/19 05:09:26;;;;;;;;;45.00;37.00;;;;;12.71;64.50;102235.78;5035601;28;45484;-69
2023/05/19 05:11:52;;;;;;;;;26.00;23.33;;;;;12.85;64.63;102278.84;5036527;27;45329;-69
2023/05/19 05:14:18;;;;;;;;;30.67;23.00;;;;;12.87;64.76;102268.25;5036340;27;45312;-69
2023/05/19 05:16:44;;;;;;;;;28.33;25.00;;;;;12.82;64.98;102270.94;5035697;28;46945;-69
2023/05/19 05:19:10;;;;;;;;;22.00;21.00;;;;;12.64;65.07;102255.19;5036074;27;45210;-69
2023/05/19 05:21:35;;;;;;;;;22.67;20.67;;;;;12.72;65.30;102282.44;5036127;27;45447;-69
2023/05/19 05:24:01;;;;;;;;;24.67;21.00;;;;;12.72;65.18;102295.66;5036052;28;45291;-68
2023/05/19 05:26:30;;;;;;;;;20.00;17.00;;;;;12.65;65.62;102288.66;5035704;27;45350;-68
2023/05/19 05:28:56;;;;;;;;;27.67;23.33;;;;;12.68;65.69;102299.22;5035949;28;45551;-69
2023/05/19 05:31:21;;;;;;;;;25.00;22.67;;;;;12.68;65.98;102302.72;5035973;28;45473;-69
2023/05/19 05:33:46;;;;;;;;;28.33;24.33;;;;;12.67;66.13;102293.03;5036131;27;45319;-69
2023/05/19 05:36:12;;;;;;;;;28.33;25.67;;;;;12.72;65.94;102293.00;5035671;28;45410;-70
2023/05/19 05:38:38;;;;;;;;;32.33;25.67;;;;;12.74;65.91;102291.25;5035694;28;45405;-71
2023/05/19 05:41:03;;;;;;;;;32.00;25.67;;;;;12.73;65.85;102284.19;5035423;27;45321;-68
2023/05/19 05:43:29;;;;;;;;;28.67;25.33;;;;;12.78;66.12;102289.44;5036203;28;45429;-70
2023/05/19 05:45:56;;;;;;;;;29.00;26.67;;;;;12.78;66.30;102268.28;5035395;28;46292;-68
2023/05/19 05:48:21;;;;;;;;;32.67;29.33;;;;;12.85;65.49;102275.28;5035494;28;45440;-68
2023/05/19 05:50:48;;;;;;;;;29.00;23.33;;;;;13.15;65.01;102268.88;5035145;28;45472;-68
2023/05/19 05:53:18;;;;;;;;;29.00;28.00;;;;;13.60;63.91;102281.72;5030857;27;45594;-69
2023/05/19 05:55:45;;;;;;;;;25.67;23.33;;;;;13.53;63.54;102286.19;5037495;27;48210;-69
2023/05/19 05:58:10;;;;;;;;;21.67;21.67;;;;;13.41;62.97;102260.72;5019439;28;45313;-68
2023/05/19 06:00:37;;;;;;;;;29.33;22.67;;;;;13.38;63.20;102279.28;5015610;28;45268;-68
2023/05/19 06:03:03;;;;;;;;;34.00;30.67;;;;;13.60;63.38;102286.13;5016047;27;45850;-68
2023/05/19 06:05:29;;;;;;;;;29.33;28.33;;;;;13.60;63.26;102280.84;5015245;28;46510;-68
2023/05/19 06:07:54;;;;;;;;;29.33;26.00;;;;;13.53;63.09;102278.25;5015644;27;45442;-67
2023/05/19 06:10:20;;;;;;;;;25.67;24.67;;;;;13.53;62.92;102278.25;5015572;28;45361;-66
2023/05/19 06:12:45;;;;;;;;;31.67;24.67;;;;;13.52;62.84;102275.59;5015878;28;45399;-70
2023/05/19 06:15:11;;;;;;;;;26.00;21.67;;;;;13.56;62.82;102286.16;5015406;28;46388;-70
2023/05/19 06:17:36;;;;;;;;;23.33;22.00;;;;;13.53;62.11;102272.94;5014067;27;45400;-71
2023/05/19 06:20:03;;;;;;;;;28.00;22.67;;;;;13.57;62.45;102273.81;5015473;27;45414;-71
2023/05/19 06:22:28;;;;;;;;;27.33;26.00;;;;;13.63;61.96;102276.38;5015627;27;45330;-71
2023/05/19 06:24:54;;;;;;;;;25.00;20.33;;;;;13.62;61.65;102274.63;5015046;28;47097;-70
2023/05/19 06:27:19;;;;;;;;;26.33;24.00;;;;;13.62;61.15;102269.31;5015270;28;45380;-69
2023/05/19 06:29:45;;;;;;;;;27.67;24.00;;;;;13.63;61.05;102262.28;5015711;27;45440;-71
2023/05/19 06:32:10;;;;;;;;;23.00;22.00;;;;;13.79;60.96;102276.22;5015458;28;45229;-71
2023/05/19 06:34:37;;;;;;;;;27.33;24.67;;;;;13.84;60.77;102274.38;5014972;28;45471;-70
2023/05/19 06:37:02;;;;;;;;;27.00;23.67;;;;;13.90;60.94;102272.53;5015023;28;45244;-68
2023/05/19 06:39:28;;;;;;;;;25.00;22.00;;;;;13.92;60.53;102275.16;5015276;27;45395;-68
2023/05/19 06:41:53;;;;;;;;;22.00;22.00;;;;;14.00;60.69;102269.78;5030674;28;45489;-68
2023/05/19 06:44:18;;;;;;;;;29.33;26.33;;;;;13.98;60.44;102261.84;5015101;28;46483;-70
2023/05/19 06:46:44;;;;;;;;;25.67;22.33;;;;;14.02;60.05;102246.81;5014405;28;45249;-68
2023/05/19 06:49:09;;;;;;;;;21.67;21.00;;;;;14.05;58.65;102263.53;5014891;28;45435;-70
2023/05/19 06:51:35;;;;;;;;;24.33;20.67;;;;;14.01;59.19;102243.25;5015184;27;45332;-70
2023/05/19 06:54:00;;;;;;;;;30.67;24.33;;;;;14.09;58.29;102259.94;5014866;27;46417;-70
2023/05/19 06:56:26;;;;;;;;;22.67;20.67;;;;;14.18;57.63;102271.31;5014904;27;45889;-68
2023/05/19 06:58:51;;;;;;;;;27.33;22.33;;;;;14.35;58.11;102268.41;5014894;28;45253;-68
2023/05/19 07:01:16;;;;;;;;;27.67;23.33;;;;;14.74;56.81;102274.97;5015010;27;45376;-68
2023/05/19 07:03:42;;;;;;;;;26.33;20.00;;;;;14.83;56.41;102270.38;5014063;28;46267;-69
2023/05/19 07:06:07;;;;;;;;;27.67;21.33;;;;;15.00;55.95;102268.34;5014387;28;45300;-69
2023/05/19 07:08:34;;;;;;;;;24.33;21.00;;;;;15.30;55.30;102260.75;5014883;28;45230;-69
2023/05/19 07:10:59;;;;;;;;;24.00;22.33;;;;;15.44;54.53;102265.81;5014837;28;45350;-68
2023/05/19 07:13:24;;;;;;;;;27.67;24.00;;;;;15.55;54.40;102261.16;5014210;28;45366;-68
2023/05/19 07:15:51;;;;;;;;;21.33;21.33;;;;;15.69;54.56;102268.00;5014431;28;45476;-68
2023/05/19 07:18:16;;;;;;;;;22.67;21.33;;;;;15.79;54.04;102257.19;5014718;28;45324;-68
2023/05/19 07:20:42;;;;;;;;;30.67;22.67;;;;;15.62;53.38;102236.25;5014804;28;45396;-68
2023/05/19 07:23:07;;;;;;;;;27.00;23.67;;;;;15.58;53.19;102254.94;5014316;28;46467;-68
2023/05/19 07:25:32;;;;;;;;;25.67;22.00;;;;;15.49;53.43;102255.97;5014155;28;45327;-67
2023/05/19 07:27:58;;;;;;;;;21.67;20.67;;;;;15.52;54.18;102261.22;5014546;28;45356;-68
2023/05/19 07:30:27;;;;;;;;;17.67;14.67;;;;;15.54;53.65;102266.50;5014725;28;45323;-68
2023/05/19 07:32:52;;;;;;;;;24.67;20.33;;;;;15.47;53.94;102239.22;5014377;27;46189;-68
2023/05/19 07:35:21;;;;;;;;;21.33;21.33;;;;;15.70;53.77;102267.97;5014102;28;45321;-68
2023/05/19 07:37:47;;;;;;;;;21.67;17.67;;;;;16.09;52.73;102259.22;5014125;27;45323;-68
2023/05/19 07:40:12;;;;;;;;;22.00;21.00;;;;;16.19;51.62;102263.44;5014793;27;45411;-68
2023/05/19 07:42:38;;;;;;;;;26.00;21.00;;;;;16.11;52.54;102257.44;5014205;28;45682;-68
2023/05/19 07:45:03;;;;;;;;;26.67;23.00;;;;;16.16;52.38;102245.81;5034335;27;45355;-67
2023/05/19 07:47:29;;;;;;;;;26.67;24.00;;;;;16.35;52.59;102256.00;5033733;27;45163;-67
2023/05/19 07:49:55;;;;;;;;;23.33;19.00;;;;;16.36;52.13;102261.28;5033876;28;45540;-67
2023/05/19 07:52:20;;;;;;;;;27.33;24.67;;;;;16.35;52.30;102240.03;5033686;28;45358;-67
2023/05/19 07:54:45;;;;;;;;;27.00;22.67;;;;;16.39;52.29;102238.22;5034051;28;45347;-67
2023/05/19 07:57:11;;;;;;;;;24.33;20.67;;;;;16.41;52.04;102242.59;5034088;28;45439;-67
2023/05/19 07:59:36;;;;;;;;;26.00;20.33;;;;;16.57;52.13;102240.44;5033842;28;45539;-67
2023/05/19 08:02:01;;;;;;;;;24.67;21.00;;;;;16.56;51.99;102224.53;5033496;28;45412;-67
2023/05/19 08:04:27;;;;;;;;;24.33;19.33;;;;;16.63;51.53;102234.97;5033728;28;45361;-67
2023/05/19 08:06:53;;;;;;;;;25.33;21.00;;;;;16.62;51.44;102243.84;5033787;28;45502;-67
2023/05/19 08:09:19;;;;;;;;;24.67;21.67;;;;;16.64;51.15;102247.38;5033047;28;45459;-67
2023/05/19 08:11:45;;;;;;;;;27.67;22.00;;;;;16.97;51.12;102243.94;5033403;28;46552;-67
2023/05/19 08:14:11;;;;;;;;;24.00;18.33;;;;;18.73;48.70;102241.50;5033621;28;45190;-67
2023/05/19 08:16:36;;;;;;;;;22.67;22.00;;;;;18.99;47.10;102229.09;5035675;28;45392;-67
2023/05/19 08:19:04;;;;;;;;;25.00;23.33;;;;;18.72;46.25;102226.41;5036907;28;45537;-67
2023/05/19 08:21:33;;;;;;;;;26.67;19.33;;;;;18.52;47.17;102222.59;5036399;28;46673;-67
2023/05/19 08:23:59;;;;;;;;;20.00;19.33;;;;;18.44;47.83;102235.31;5036219;28;45560;-69
2023/05/19 08:26:25;;;;;;;;;26.33;23.00;;;;;18.59;47.37;102240.16;5036494;28;45384;-69
2023/05/19 08:28:50;;;;;;;;;20.67;19.00;;;;;19.18;46.34;102245.34;5036845;28;45353;-69
2023/05/19 08:31:17;;;;;;;;;18.33;15.33;;;;;19.51;45.07;102237.06;5036525;28;46246;-68
2023/05/19 08:33:42;;;;;;;;;19.67;17.00;;;;;19.27;45.84;102227.22;5036322;28;45500;-69
2023/05/19 08:36:08;;;;;;;;;19.67;18.67;;;;;19.03;46.39;102230.75;5036383;28;45363;-69
2023/05/19 08:38:33;;;;;;;;;19.33;17.00;;;;;18.83;46.71;102226.06;5036855;28;45155;-69
2023/05/19 08:40:58;;;;;;;;;20.00;16.33;;;;;18.64;46.89;102229.31;5036555;28;46311;-68
2023/05/19 08:43:24;;;;;;;;;19.67;14.00;;;;;18.40;45.91;102194.53;5036485;27;45254;-69
2023/05/19 08:45:52;;;;;;;;;14.67;14.67;;;;;18.60;46.52;102223.25;5036449;27;45162;-69
2023/05/19 08:48:19;;;;;;;;;23.00;19.33;;;;;18.48;46.34;102212.09;5036194;28;45261;-69
2023/05/19 08:51:19;;;;;;;;;16.33;14.00;;;;;18.18;46.93;102169.47;5035685;28;47630;-69
2023/05/19 08:53:49;;;;;;;;;18.33;17.67;;;;;18.38;46.41;102222.19;5037270;28;45463;-69
2023/05/19 08:56:20;;;;;;;;;15.00;14.33;;;;;18.31;46.82;102213.47;5037364;28;45438;-69
2023/05/19 08:58:48;;;;;;;;;19.00;16.33;;;;;18.11;46.95;102182.16;5020840;28;45299;-69
2023/05/19 09:01:17;;;;;;;;;19.00;17.33;;;;;18.25;46.47;102211.91;5037172;28;46292;-69
2023/05/19 09:03:44;;;;;;;;;14.67;13.00;;;;;18.23;46.34;102218.22;5037034;28;46157;-69
2023/05/19 09:06:13;;;;;;;;;19.00;19.00;;;;;18.35;46.27;102201.81;5037023;28;45359;-69
2023/05/19 09:08:39;;;;;;;;;15.33;13.67;;;;;18.60;46.02;102214.34;5037196;28;45330;-69
2023/05/19 09:11:05;;;;;;;;;16.33;13.67;;;;;18.65;45.52;102212.41;5036941;28;46133;-69
2023/05/19 09:13:30;;;;;;;;;20.00;16.00;;;;;18.69;45.26;102207.81;5037206;28;45418;-69
2023/05/19 09:15:56;;;;;;;;;19.33;14.67;;;;;18.76;44.71;102210.25;5037122;28;45353;-69
2023/05/19 09:18:25;;;;;;;;;21.67;15.33;;;;;18.72;45.00;102205.94;5037481;28;45377;-69
2023/05/19 09:20:58;;;;;;;;;17.33;15.67;;;;;18.55;44.37;102185.16;5036641;28;45465;-69
2023/05/19 09:23:31;;;;;;;;;19.67;17.33;;;;;18.68;44.71;102204.28;5036434;28;45474;-68
2023/05/19 09:25:57;;;;;;;;;15.67;14.67;;;;;18.64;44.65;102209.78;5036792;28;45340;-68
2023/05/19 09:28:26;;;;;;;;;15.00;14.00;;;;;18.53;45.48;102187.00;5037117;28;45454;-69
2023/05/19 09:31:06;;;;;;;;;16.33;14.00;;;;;18.66;45.24;102195.50;5036020;28;46235;-69
2023/05/19 09:33:33;;;;;;;;;14.00;13.00;;;;;18.80;44.39;102200.34;5035770;27;45177;-69
2023/05/19 09:35:59;;;;;;;;;13.00;11.67;;;;;19.27;44.01;102208.53;5035730;28;45622;-69
2023/05/19 09:38:25;;;;;;;;;11.00;11.00;;;;;19.54;42.75;102203.09;5035896;28;45220;-69
2023/05/19 09:40:56;;;;;;;;;14.00;12.00;;;;;19.81;42.82;102185.19;5035537;28;45784;-69
2023/05/19 09:43:21;;;;;;;;;15.33;13.33;;;;;20.20;41.90;102148.91;5035703;28;45194;-68
2023/05/19 09:45:47;;;;;;;;;20.33;15.67;;;;;21.78;40.24;102187.59;5035580;28;45233;-69
2023/05/19 09:48:14;;;;;;;;;20.33;16.33;;;;;23.95;38.25;102189.09;5035886;28;45456;-69
2023/05/19 09:50:42;;;;;;;;;14.00;11.33;;;;;26.12;33.11;102168.78;5035658;28;47486;-69
2023/05/19 09:53:09;;;;;;;;;13.33;12.67;;;;;28.16;33.10;102179.81;5035433;28;45426;-69
2023/05/19 09:55:34;;;;;;;;;12.00;11.33;;;;;30.07;32.15;102177.50;5035750;28;45437;-69
2023/05/19 09:58:03;;;;;;;;;16.67;13.67;;;;;31.76;30.10;102178.34;5035784;28;45394;-69
2023/05/19 10:00:31;;;;;;;;;16.00;15.00;;;;;33.03;28.17;102168.47;5035357;28;45409;-69
2023/05/19 10:02:59;;;;;;;;;13.67;12.67;;;;;34.08;24.68;102167.22;5035603;28;45454;-69
2023/05/19 10:05:25;;;;;;;;;16.00;13.00;;;;;35.30;24.92;102179.31;5035457;28;45301;-69
2023/05/19 10:07:53;;;;;;;;;8.33;8.33;;;;;36.31;24.82;102187.72;5035579;28;45463;-69
2023/05/19 10:10:19;;;;;;;;;13.67;12.00;;;;;36.79;23.38;102175.03;5035194;28;45392;-70
2023/05/19 10:12:46;;;;;;;;;13.67;12.00;;;;;37.11;21.06;102176.84;5034941;28;45513;-70
2023/05/19 10:15:14;;;;;;;;;14.00;11.67;;;;;37.28;22.58;102177.69;5035536;28;45518;-69
2023/05/19 10:17:41;;;;;;;;;13.00;12.00;;;;;37.73;20.64;102174.38;5035453;28;45509;-70
2023/05/19 10:20:14;;;;;;;;;12.00;11.00;;;;;38.01;21.56;102179.38;5034944;28;46863;-70
2023/05/19 10:22:41;;;;;;;;;13.33;12.33;;;;;38.08;20.21;102175.72;5035162;28;45394;-70
2023/05/19 10:25:08;;;;;;;;;9.00;9.00;;;;;38.53;20.49;102175.03;5035169;28;45231;-70
2023/05/19 10:27:43;;;;;;;;;11.00;11.00;;;;;38.94;20.16;102166.41;5035441;28;45249;-70
2023/05/19 10:30:15;;;;;;;;;10.67;10.67;;;;;39.33;22.56;102156.97;5034659;28;47039;-70
2023/05/19 10:32:42;;;;;;;;;14.33;11.67;;;;;39.66;19.29;102164.81;5035073;27;45379;-70
2023/05/19 10:35:23;;;;;;;;;13.33;11.67;;;;;39.69;18.46;102164.44;5034995;28;45214;-70
2023/05/19 10:38:07;;;;;;;;;11.00;11.00;;;;;39.53;19.85;102162.72;5034131;28;45471;-70
2023/05/19 10:40:37;;;;;;;;;10.67;9.33;;;;;39.04;18.20;102153.19;5035010;28;46106;-70
2023/05/19 10:43:18;;;;;;;;;12.00;10.67;;;;;38.64;19.69;102144.28;5036214;27;45438;-70
2023/05/19 10:45:48;;;;;;;;;17.00;12.67;;;;;38.48;18.30;102156.31;5034795;28;45517;-70
2023/05/19 10:48:15;;;;;;;;;14.00;12.67;;;;;37.45;18.51;102139.13;5034894;28;45200;-70
2023/05/19 10:50:44;;;;;;;;;12.33;12.33;;;;;36.61;19.97;102147.75;5034627;28;46214;-70
2023/05/19 10:53:16;;;;;;;;;11.33;9.33;;;;;36.04;20.25;102146.69;5034682;28;45476;-70
2023/05/19 10:56:02;;;;;;;;;10.00;10.00;;;;;35.11;20.94;102133.00;5034797;28;45396;-70
2023/05/19 10:58:43;;;;;;;;;12.00;11.00;;;;;33.62;21.54;102145.38;5034974;28;45504;-70
2023/05/19 11:01:19;;;;;;;;;11.33;10.67;;;;;32.69;22.18;102128.94;5034523;28;45525;-70
2023/05/19 11:03:56;;;;;;;;;12.67;12.00;;;;;31.48;22.67;102120.03;5034740;28;45225;-70
2023/05/19 11:06:31;;;;;;;;;12.00;11.00;;;;;30.64;23.43;102133.81;5035861;27;45311;-70
2023/05/19 11:08:59;;;;;;;;;14.00;11.00;;;;;29.59;23.44;102123.53;5034870;28;45392;-70
2023/05/19 11:11:26;;;;;;;;;15.00;14.33;;;;;28.56;24.82;102114.41;5034602;28;46467;-71